Time;durP1;ratioP1;P1;durP2;ratioP2;P2;SDS_P1;SDS_P2;PMS_P1;PMS_P2;Temp;Humidity;BMP_temperature;BMP_pressure;BME280_temperature;BME280_humidity;BME280_pressure;Samples;Min_cycle;Max_cycle;Signal;HPM_P1;HPM_P2
2023/06/05 00:01:50;;;;;;;5.72;1.92;;;15.60;53.20;;;;;;4992899;28;20059;-60
2023/06/05 00:04:17;;;;;;;3.22;1.83;;;15.60;53.40;;;;;;4994582;28;20113;-60
2023/06/05 00:06:45;;;;;;;5.30;1.88;;;15.50;53.80;;;;;;4988170;28;20059;-67
2023/06/05 00:09:13;;;;;;;4.68;1.40;;;15.40;54.00;;;;;;4988779;28;20038;-67
2023/06/05 00:11:40;;;;;;;2.92;1.30;;;15.40;54.40;;;;;;4996290;28;20528;-64
2023/06/05 00:14:08;;;;;;;4.07;1.48;;;15.30;54.80;;;;;;4993425;28;20589;-65
2023/06/05 00:16:35;;;;;;;5.13;1.55;;;15.20;55.00;;;;;;4990039;28;20058;-70
2023/06/05 00:19:02;;;;;;;3.35;1.35;;;15.20;55.20;;;;;;4991159;28;20038;-70
2023/06/05 00:21:29;;;;;;;3.03;1.40;;;15.20;55.30;;;;;;4992924;28;20121;-73
2023/06/05 00:23:58;;;;;;;2.58;1.17;;;15.20;55.30;;;;;;4993456;28;20057;-74
2023/06/05 00:26:26;;;;;;;2.33;1.30;;;15.10;55.40;;;;;;4981095;28;20054;-70
2023/06/05 00:28:53;;;;;;;4.05;1.33;;;15.10;55.50;;;;;;4989759;28;20050;-70
2023/06/05 00:31:21;;;;;;;2.28;1.25;;;15.10;55.60;;;;;;4975178;28;20066;-70
2023/06/05 00:33:48;;;;;;;3.13;1.15;;;15.00;55.50;;;;;;4985427;28;20466;-71
2023/06/05 00:36:17;;;;;;;4.95;1.65;;;15.00;55.20;;;;;;4988949;28;20065;-70
2023/06/05 00:38:45;;;;;;;3.05;1.30;;;15.00;55.00;;;;;;4992130;28;20125;-71
2023/06/05 00:41:13;;;;;;;2.45;1.30;;;15.00;55.10;;;;;;4990425;28;20045;-75
2023/06/05 00:43:40;;;;;;;2.40;1.08;;;14.90;55.20;;;;;;4992537;28;20046;-75
2023/06/05 00:46:07;;;;;;;2.50;1.10;;;14.90;55.40;;;;;;4983911;28;20136;-68
2023/06/05 00:48:35;;;;;;;3.90;1.50;;;14.90;55.30;;;;;;4992336;28;20137;-68
2023/06/05 00:51:02;;;;;;;4.13;1.52;;;14.90;55.60;;;;;;4993028;28;20042;-78
2023/06/05 00:53:33;;;;;;;2.70;1.33;;;14.70;55.90;;;;;;4991123;28;20125;-78
2023/06/05 00:56:01;;;;;;;3.38;1.20;;;14.70;56.20;;;;;;4971569;28;20187;-78
2023/06/05 00:58:32;;;;;;;2.50;1.10;;;14.60;56.20;;;;;;4994246;28;20054;-78
2023/06/05 01:01:00;;;;;;;2.93;1.27;;;14.60;56.40;;;;;;4994099;28;20058;-61
2023/06/05 01:03:29;;;;;;;3.28;1.30;;;14.50;56.20;;;;;;4973263;28;20465;-61
2023/06/05 01:06:03;;;;;;;3.70;1.30;;;14.40;56.50;;;;;;4994287;28;20104;-61
2023/06/05 01:08:38;;;;;;;2.95;1.23;;;14.30;56.60;;;;;;4966900;28;20104;-60
2023/06/05 01:11:10;;;;;;;3.95;1.20;;;14.30;56.90;;;;;;4990275;28;20121;-61
2023/06/05 01:13:45;;;;;;;2.22;1.00;;;14.30;57.20;;;;;;4992453;28;20045;-61
2023/06/05 01:16:12;;;;;;;3.03;1.20;;;14.20;57.40;;;;;;4989754;28;20064;-67
2023/06/05 01:18:40;;;;;;;1.60;0.90;;;14.20;57.50;;;;;;4971506;28;20049;-67
2023/06/05 01:21:14;;;;;;;2.72;1.10;;;14.20;57.70;;;;;;4995749;28;20519;-70
2023/06/05 01:23:44;;;;;;;2.80;1.02;;;14.20;57.70;;;;;;4975916;28;20477;-70
2023/06/05 01:26:19;;;;;;;3.78;1.20;;;14.10;57.60;;;;;;4974208;28;20505;-78
2023/06/05 01:28:50;;;;;;;2.55;1.08;;;14.10;57.60;;;;;;4971358;28;20061;-78
2023/06/05 01:31:19;;;;;;;4.80;1.20;;;14.10;57.80;;;;;;4991290;28;20486;-75
2023/06/05 01:33:52;;;;;;;3.38;1.23;;;14.00;58.10;;;;;;4991155;28;20050;-75
2023/06/05 01:36:21;;;;;;;3.90;1.63;;;13.90;58.40;;;;;;4990572;28;20088;-61
2023/06/05 01:38:52;;;;;;;2.92;1.38;;;13.90;58.30;;;;;;4976780;28;20042;-61
2023/06/05 01:41:20;;;;;;;2.85;1.13;;;13.90;58.40;;;;;;4986020;28;20042;-61
2023/06/05 01:43:48;;;;;;;2.58;1.10;;;13.80;58.40;;;;;;4986779;28;20439;-60
2023/06/05 01:46:18;;;;;;;2.90;1.30;;;13.80;58.30;;;;;;4971060;28;20054;-74
2023/06/05 01:48:47;;;;;;;2.85;1.05;;;13.80;58.50;;;;;;4984691;28;20053;-73
2023/06/05 01:51:14;;;;;;;4.35;1.73;;;13.80;58.60;;;;;;4968012;28;20432;-73
2023/06/05 01:53:41;;;;;;;2.10;1.10;;;13.80;58.80;;;;;;4977183;28;20065;-73
2023/06/05 01:56:10;;;;;;;2.40;1.20;;;13.70;58.90;;;;;;4988521;28;20046;-68
2023/06/05 01:58:38;;;;;;;2.30;1.20;;;13.70;59.00;;;;;;4974576;28;20058;-68
2023/06/05 02:01:05;;;;;;;2.38;1.10;;;13.70;59.10;;;;;;4974888;28;20056;-68
2023/06/05 02:03:32;;;;;;;2.33;1.05;;;13.60;59.20;;;;;;4993578;28;20121;-67
2023/06/05 02:05:59;;;;;;;2.47;1.10;;;13.50;59.40;;;;;;5000839;28;20053;-74
2023/06/05 02:08:27;;;;;;;3.83;1.38;;;13.50;59.50;;;;;;4975340;28;20045;-74
2023/06/05 02:10:55;;;;;;;3.58;1.30;;;13.50;59.70;;;;;;4994906;28;20052;-61
2023/06/05 02:13:24;;;;;;;3.08;1.30;;;13.40;59.80;;;;;;4979532;28;20042;-60
2023/06/05 02:15:56;;;;;;;3.23;1.37;;;13.40;59.80;;;;;;4990809;28;20185;-70
2023/06/05 02:18:25;;;;;;;2.63;1.38;;;13.40;59.90;;;;;;4998127;28;20472;-70
2023/06/05 02:20:56;;;;;;;4.30;1.10;;;13.40;59.90;;;;;;4998542;28;20081;-67
2023/06/05 02:23:23;;;;;;;2.25;1.45;;;13.30;59.90;;;;;;4997139;28;20050;-67
2023/06/05 02:25:50;;;;;;;3.47;1.17;;;13.30;59.90;;;;;;4996838;28;20073;-61
2023/06/05 02:28:17;;;;;;;3.03;1.10;;;13.20;60.00;;;;;;4979076;28;20054;-60
2023/06/05 02:30:45;;;;;;;3.78;1.60;;;13.20;60.10;;;;;;4989935;28;20057;-64
2023/06/05 02:33:12;;;;;;;3.03;1.20;;;13.20;60.40;;;;;;4996090;28;20069;-64
2023/06/05 02:35:40;;;;;;;3.30;1.35;;;13.10;60.70;;;;;;4974981;28;20423;-63
2023/06/05 02:38:08;;;;;;;3.75;1.70;;;13.10;60.80;;;;;;4980684;28;20041;-64
2023/06/05 02:40:35;;;;;;;2.78;1.00;;;13.10;60.90;;;;;;4968645;28;20065;-64
2023/06/05 02:43:02;;;;;;;4.00;1.33;;;13.10;61.10;;;;;;4978584;28;20050;-64
2023/06/05 02:45:30;;;;;;;2.83;1.10;;;13.00;61.10;;;;;;4978559;28;20125;-64
2023/06/05 02:47:58;;;;;;;2.78;1.30;;;13.10;61.20;;;;;;4971774;28;20133;-70
2023/06/05 02:50:25;;;;;;;3.17;1.50;;;13.00;61.30;;;;;;4981383;28;20057;-71
2023/06/05 02:52:55;;;;;;;2.60;1.10;;;13.00;61.50;;;;;;4970313;28;20141;-70
2023/06/05 02:55:32;;;;;;;2.88;1.30;;;12.90;61.70;;;;;;4979934;28;20064;-78
2023/06/05 02:58:02;;;;;;;2.70;1.30;;;13.00;61.60;;;;;;4973337;28;20133;-78
2023/06/05 03:00:40;;;;;;;3.85;1.27;;;13.00;61.40;;;;;;4978509;28;20501;-68
2023/06/05 03:03:08;;;;;;;3.88;1.20;;;12.90;61.10;;;;;;4976554;28;20173;-68
2023/06/05 03:05:36;;;;;;;3.70;1.38;;;12.90;60.90;;;;;;4979926;28;20046;-68
2023/06/05 03:08:08;;;;;;;2.58;1.17;;;12.90;61.10;;;;;;4969518;28;20046;-68
2023/06/05 03:10:35;;;;;;;2.63;1.38;;;12.90;61.20;;;;;;4974160;28;20065;-68
2023/06/05 03:13:04;;;;;;;4.07;1.60;;;12.80;61.30;;;;;;4978881;28;20132;-68
2023/06/05 03:15:34;;;;;;;;;;;12.80;61.20;;;;;;4970352;28;20553;-79
2023/06/05 03:18:01;;;;;;;3.55;1.55;;;12.80;61.20;;;;;;4981323;28;19926;-79
2023/06/05 03:20:31;;;;;;;2.28;1.10;;;12.80;61.30;;;;;;4986440;28;20145;-78
2023/06/05 03:22:57;;;;;;;3.90;1.40;;;12.80;61.20;;;;;;4993965;28;20046;-74
2023/06/05 03:25:25;;;;;;;2.38;1.23;;;12.80;61.10;;;;;;4977254;28;20141;-74
2023/06/05 03:27:56;;;;;;;2.60;1.10;;;12.80;61.00;;;;;;4975507;28;20054;-74
2023/06/05 03:30:25;;;;;;;5.88;1.52;;;12.70;60.90;;;;;;4969783;28;20493;-74
2023/06/05 03:32:55;;;;;;;2.60;1.17;;;12.70;61.10;;;;;;4978003;28;20049;-74
2023/06/05 03:35:22;;;;;;;2.28;1.20;;;12.60;61.40;;;;;;4994364;28;20038;-74
2023/06/05 03:37:50;;;;;;;4.00;1.50;;;12.60;61.60;;;;;;4985847;28;20057;-74
2023/06/05 03:40:17;;;;;;;3.47;1.42;;;12.60;61.70;;;;;;4990710;28;20050;-74
2023/06/05 03:42:44;;;;;;;4.85;1.70;;;12.60;61.70;;;;;;4978153;28;20146;-64
2023/06/05 03:45:13;;;;;;;3.67;1.30;;;12.50;62.00;;;;;;4990316;28;20049;-64
2023/06/05 03:47:40;;;;;;;2.70;1.30;;;12.60;62.10;;;;;;4993480;28;20501;-70
2023/06/05 03:50:10;;;;;;;2.70;1.10;;;12.60;62.20;;;;;;4977931;28;20057;-70
2023/06/05 03:52:41;;;;;;;5.38;1.60;;;12.60;62.40;;;;;;4975256;28;20058;-76
2023/06/05 03:55:10;;;;;;;3.83;1.60;;;12.50;62.60;;;;;;4972181;28;20116;-75
2023/06/05 03:57:41;;;;;;;4.28;1.30;;;12.50;62.60;;;;;;4972524;28;20046;-60
2023/06/05 04:00:10;;;;;;;3.83;1.65;;;12.40;62.80;;;;;;4972961;28;20427;-61
2023/06/05 04:02:40;;;;;;;3.55;2.20;;;12.50;62.80;;;;;;4994613;28;20121;-64
2023/06/05 04:05:11;;;;;;;3.03;1.30;;;12.50;62.90;;;;;;4978411;28;20128;-64
2023/06/05 04:07:38;;;;;;;2.72;1.20;;;12.40;63.00;;;;;;4977188;28;20461;-68
2023/06/05 04:10:07;;;;;;;2.90;1.42;;;12.50;63.10;;;;;;4961919;28;20048;-67
2023/06/05 04:12:35;;;;;;;3.13;1.25;;;12.50;63.30;;;;;;4988830;28;20058;-76
2023/06/05 04:15:03;;;;;;;4.07;1.60;;;12.50;63.30;;;;;;4977650;28;20134;-77
2023/06/05 04:17:30;;;;;;;2.83;1.20;;;12.50;63.20;;;;;;4984367;28;20052;-61
2023/06/05 04:19:57;;;;;;;3.10;1.40;;;12.50;63.10;;;;;;4976095;28;20068;-60
2023/06/05 04:22:25;;;;;;;3.45;1.30;;;12.50;63.00;;;;;;4977114;28;20167;-68
2023/06/05 04:24:52;;;;;;;3.22;1.30;;;12.50;63.10;;;;;;4977296;28;20050;-68
2023/06/05 04:27:19;;;;;;;3.45;1.50;;;12.50;63.20;;;;;;4976112;28;20052;-73
2023/06/05 04:29:49;;;;;;;4.07;1.35;;;12.50;63.40;;;;;;4989691;28;20050;-74
2023/06/05 04:32:16;;;;;;;3.70;1.48;;;12.60;63.20;;;;;;4994887;28;20059;-74
2023/06/05 04:34:43;;;;;;;4.38;1.30;;;12.60;63.30;;;;;;4978455;28;20057;-74
2023/06/05 04:37:10;;;;;;;4.00;1.58;;;12.60;63.30;;;;;;4975324;28;20045;-68
2023/06/05 04:39:38;;;;;;;4.45;1.73;;;12.60;63.30;;;;;;4975160;28;20058;-68
2023/06/05 04:42:07;;;;;;;3.50;1.48;;;12.60;63.40;;;;;;4989387;28;20064;-74
2023/06/05 04:44:37;;;;;;;;;;;12.60;63.70;;;;;;4967985;28;20054;-74
2023/06/05 04:47:08;;;;;;;2.55;1.17;;;12.70;63.70;;;;;;4972877;28;19922;-78
2023/06/05 04:49:35;;;;;;;3.28;1.48;;;12.70;63.60;;;;;;4993678;28;20061;-78
2023/06/05 04:52:02;;;;;;;3.10;1.50;;;12.70;63.60;;;;;;4977049;28;20201;-78
2023/06/05 04:54:29;;;;;;;3.03;1.52;;;12.80;63.20;;;;;;4971059;28;20056;-78
2023/06/05 04:56:57;;;;;;;4.70;1.63;;;12.90;63.00;;;;;;4974898;28;20054;-68
2023/06/05 04:59:24;;;;;;;4.05;1.35;;;12.90;63.20;;;;;;4975229;28;20060;-67
2023/06/05 05:01:51;;;;;;;3.00;1.50;;;12.90;63.30;;;;;;4949481;28;20063;-78
2023/06/05 05:04:19;;;;;;;6.70;1.90;;;12.90;63.10;;;;;;4978148;28;20065;-78
2023/06/05 05:06:47;;;;;;;4.50;1.45;;;13.00;63.20;;;;;;4988829;28;20084;-65
2023/06/05 05:09:17;;;;;;;3.95;1.50;;;13.00;62.90;;;;;;4965859;28;20402;-65
2023/06/05 05:11:53;;;;;;;3.75;1.52;;;13.10;62.40;;;;;;4973380;28;20054;-64
2023/06/05 05:14:20;;;;;;;3.33;1.40;;;13.10;62.30;;;;;;4974554;28;20082;-64
2023/06/05 05:16:49;;;;;;;3.95;1.40;;;13.20;62.20;;;;;;4991684;28;20110;-78
2023/06/05 05:19:16;;;;;;;3.00;1.17;;;13.20;61.90;;;;;;4991090;28;20465;-78
2023/06/05 05:21:46;;;;;;;4.93;1.52;;;13.30;61.70;;;;;;4973206;28;20105;-64
2023/06/05 05:24:14;;;;;;;4.35;1.42;;;13.30;62.00;;;;;;4956479;28;20046;-64
2023/06/05 05:26:42;;;;;;;3.03;1.23;;;13.40;62.10;;;;;;4967389;28;20053;-70
2023/06/05 05:29:10;;;;;;;3.72;1.48;;;13.40;62.00;;;;;;4990742;28;20046;-70
2023/06/05 05:31:37;;;;;;;4.15;1.50;;;13.50;62.00;;;;;;4969968;28;20051;-67
2023/06/05 05:34:05;;;;;;;2.92;1.27;;;13.50;61.60;;;;;;4988179;28;20108;-66
2023/06/05 05:36:33;;;;;;;4.68;1.50;;;13.60;61.60;;;;;;4975653;28;20092;-73
2023/06/05 05:39:01;;;;;;;3.78;1.60;;;13.60;61.60;;;;;;4970812;28;21345;-74
2023/06/05 05:41:28;;;;;;;3.15;1.40;;;13.60;61.50;;;;;;4975600;28;20132;-67
2023/06/05 05:43:55;;;;;;;3.55;1.48;;;13.70;61.30;;;;;;4971341;28;20041;-67
2023/06/05 05:46:25;;;;;;;5.25;1.38;;;13.70;61.30;;;;;;4988341;28;20608;-73
2023/06/05 05:48:52;;;;;;;3.58;1.50;;;13.70;61.10;;;;;;4994178;28;20390;-73
2023/06/05 05:51:19;;;;;;;3.63;1.67;;;13.90;60.60;;;;;;4981163;28;20707;-68
2023/06/05 05:53:45;;;;;;;3.55;1.38;;;14.00;60.30;;;;;;4993110;28;20103;-68
2023/06/05 05:56:14;;;;;;;3.17;1.50;;;14.00;60.50;;;;;;4988307;28;20355;-80
2023/06/05 05:58:40;;;;;;;3.10;1.50;;;14.00;60.30;;;;;;4993883;28;20406;-81
2023/06/05 06:01:07;;;;;;;4.85;1.52;;;14.10;59.90;;;;;;4990469;28;20042;-80
2023/06/05 06:03:37;;;;;;;3.08;1.15;;;14.10;59.50;;;;;;4994154;28;20130;-80
2023/06/05 06:06:06;;;;;;;3.85;1.20;;;14.10;59.60;;;;;;4994884;28;20046;-61
2023/06/05 06:08:34;;;;;;;3.25;1.48;;;14.20;59.40;;;;;;4990141;28;20065;-62
2023/06/05 06:11:03;;;;;;;3.00;1.10;;;14.30;59.20;;;;;;4994020;28;20062;-64
2023/06/05 06:13:32;;;;;;;3.83;1.33;;;14.30;59.10;;;;;;4988508;28;20141;-64
2023/06/05 06:15:59;;;;;;;2.72;1.30;;;14.40;59.10;;;;;;4989723;28;20050;-64
2023/06/05 06:18:27;;;;;;;4.35;1.75;;;14.50;59.10;;;;;;4991509;28;20825;-64
2023/06/05 06:20:55;;;;;;;3.50;1.70;;;14.60;58.90;;;;;;4994790;28;20104;-63
2023/06/05 06:23:22;;;;;;;5.22;1.90;;;14.60;58.60;;;;;;4990595;28;20052;-64
2023/06/05 06:25:51;;;;;;;6.80;1.85;;;14.70;58.60;;;;;;4992009;28;20042;-68
2023/06/05 06:28:19;;;;;;;4.70;1.88;;;14.80;58.50;;;;;;4994128;28;20449;-68
2023/06/05 06:30:47;;;;;;;4.15;1.70;;;14.90;58.40;;;;;;4986571;28;20684;-68
2023/06/05 06:33:14;;;;;;;5.22;2.03;;;15.00;57.60;;;;;;4983415;28;20054;-68
2023/06/05 06:35:41;;;;;;;3.55;1.52;;;15.10;57.20;;;;;;4994931;28;20061;-74
2023/06/05 06:38:08;;;;;;;3.60;1.80;;;15.30;56.80;;;;;;4992746;28;20050;-74
2023/06/05 06:40:35;;;;;;;5.65;2.10;;;15.50;56.60;;;;;;4994106;28;20058;-64
2023/06/05 06:43:02;;;;;;;3.85;1.73;;;15.60;56.30;;;;;;4987415;28;20129;-64
2023/06/05 06:46:03;;;;;;;3.17;1.60;;;15.90;55.80;;;;;;4978466;28;20035;-68
2023/06/05 06:48:30;;;;;;;4.10;1.35;;;16.00;55.10;;;;;;4989208;28;20157;-68
2023/06/05 06:50:57;;;;;;;3.80;1.70;;;16.20;54.80;;;;;;4992340;28;20482;-64
2023/06/05 06:53:24;;;;;;;3.78;1.75;;;16.40;54.80;;;;;;4991814;28;20511;-64
2023/06/05 06:55:51;;;;;;;4.22;1.50;;;16.50;54.20;;;;;;4992709;28;20102;-74
2023/06/05 06:58:18;;;;;;;3.53;1.60;;;16.70;53.30;;;;;;4973152;28;20097;-73
2023/06/05 07:00:45;;;;;;;4.35;1.63;;;17.00;53.10;;;;;;4994411;28;20057;-67
2023/06/05 07:03:14;;;;;;;3.70;1.70;;;17.10;52.70;;;;;;4994306;28;20056;-68
2023/06/05 07:05:40;;;;;;;3.40;1.33;;;17.30;52.40;;;;;;4998448;28;20700;-61
2023/06/05 07:08:07;;;;;;;3.65;1.45;;;17.40;52.40;;;;;;4996282;28;20054;-61
2023/06/05 07:10:34;;;;;;;2.85;1.50;;;17.60;51.90;;;;;;4996502;28;20042;-73
2023/06/05 07:13:01;;;;;;;4.30;1.52;;;17.70;51.70;;;;;;4991900;28;20453;-73
2023/06/05 07:15:28;;;;;;;3.78;1.90;;;17.90;51.20;;;;;;4992597;28;20138;-74
2023/06/05 07:17:55;;;;;;;5.47;2.40;;;18.10;51.20;;;;;;4994395;28;20050;-73
2023/06/05 07:20:23;;;;;;;4.82;2.40;;;18.30;51.00;;;;;;4992436;28;20049;-73
2023/06/05 07:22:50;;;;;;;4.80;2.55;;;18.50;50.30;;;;;;4994789;28;20050;-61
2023/06/05 07:25:18;;;;;;;6.38;3.47;;;18.70;49.50;;;;;;4992855;28;20046;-61
2023/06/05 07:27:45;;;;;;;4.50;2.55;;;18.90;49.10;;;;;;4996145;28;20057;-67
2023/06/05 07:30:13;;;;;;;4.03;2.08;;;19.00;48.90;;;;;;4993849;28;20100;-68
2023/06/05 07:32:42;;;;;;;4.03;2.00;;;19.10;48.70;;;;;;4991108;28;20149;-61
2023/06/05 07:35:10;;;;;;;5.50;1.75;;;19.30;48.00;;;;;;4992910;28;20109;-63
2023/06/05 07:37:39;;;;;;;4.20;1.55;;;19.50;48.10;;;;;;4992250;28;20061;-72
2023/06/05 07:40:08;;;;;;;2.53;1.38;;;19.50;47.90;;;;;;4994329;28;20042;-73
2023/06/05 07:42:35;;;;;;;2.60;1.60;;;19.60;48.10;;;;;;4990689;28;20058;-67
2023/06/05 07:45:02;;;;;;;3.80;1.70;;;19.80;47.80;;;;;;4991780;28;20061;-67
2023/06/05 07:47:29;;;;;;;2.40;1.27;;;20.00;47.60;;;;;;4996926;28;20050;-79
2023/06/05 07:49:59;;;;;;;3.35;1.50;;;20.20;46.50;;;;;;4997471;28;20077;-79
2023/06/05 07:52:26;;;;;;;4.22;1.42;;;20.40;46.60;;;;;;4994515;28;20062;-61
2023/06/05 07:54:55;;;;;;;2.47;1.40;;;20.50;46.60;;;;;;4993223;28;20043;-61
2023/06/05 07:57:23;;;;;;;3.10;1.40;;;20.60;46.20;;;;;;4992508;28;20505;-68
2023/06/05 07:59:50;;;;;;;2.00;1.33;;;20.60;46.60;;;;;;4991855;28;20160;-68
2023/06/05 08:02:18;;;;;;;2.63;1.42;;;20.80;46.30;;;;;;4992360;28;20147;-60
2023/06/05 08:04:45;;;;;;;2.95;1.40;;;21.10;45.80;;;;;;4995226;28;20576;-61
2023/06/05 08:07:12;;;;;;;3.60;1.48;;;21.20;45.40;;;;;;4992719;28;20077;-67
2023/06/05 08:09:39;;;;;;;3.60;1.52;;;21.30;45.20;;;;;;4995818;28;20050;-68
2023/06/05 08:12:08;;;;;;;3.75;1.55;;;21.50;44.90;;;;;;4991439;28;20117;-64
2023/06/05 08:14:36;;;;;;;4.45;1.52;;;21.60;44.90;;;;;;4993979;28;20053;-64
2023/06/05 08:17:04;;;;;;;3.70;1.35;;;21.70;45.20;;;;;;4988680;28;20045;-73
2023/06/05 08:19:31;;;;;;;3.38;1.40;;;21.80;45.00;;;;;;4989398;28;20054;-74
2023/06/05 08:21:58;;;;;;;3.03;1.42;;;21.90;45.00;;;;;;4995402;28;20057;-75
2023/06/05 08:24:26;;;;;;;3.70;1.48;;;22.10;44.30;;;;;;4994742;28;20506;-75
2023/06/05 08:26:55;;;;;;;3.65;1.40;;;22.10;44.20;;;;;;4993573;28;20410;-74
2023/06/05 08:29:23;;;;;;;3.72;1.52;;;22.20;44.40;;;;;;4991409;28;20065;-74
2023/06/05 08:31:50;;;;;;;5.38;1.65;;;22.40;44.40;;;;;;4993522;28;20406;-82
2023/06/05 08:34:18;;;;;;;3.78;1.70;;;22.50;44.10;;;;;;4990162;28;20055;-81
2023/06/05 08:36:45;;;;;;;4.10;1.55;;;22.50;43.90;;;;;;4995858;28;20050;-73
2023/06/05 08:39:12;;;;;;;4.68;1.60;;;22.60;43.60;;;;;;4992582;28;20054;-73
2023/06/05 08:41:40;;;;;;;3.33;1.60;;;22.90;42.60;;;;;;4996198;28;20050;-69
2023/06/05 08:44:06;;;;;;;2.88;1.60;;;23.00;42.60;;;;;;4986542;28;20050;-69
2023/06/05 08:46:40;;;;;;;3.15;1.60;;;23.10;42.40;;;;;;4990477;28;20054;-68
2023/06/05 08:49:11;;;;;;;4.47;1.88;;;23.20;42.40;;;;;;4976581;28;20618;-68
2023/06/05 08:51:41;;;;;;;3.88;2.03;;;23.30;42.50;;;;;;4995181;28;20058;-68
2023/06/05 08:54:12;;;;;;;5.10;2.45;;;23.50;41.90;;;;;;4990041;28;20523;-68
2023/06/05 08:56:39;;;;;;;10.02;5.13;;;23.60;41.70;;;;;;4989533;28;20529;-68
2023/06/05 08:59:07;;;;;;;9.68;6.00;;;23.80;41.10;;;;;;4992016;28;20583;-68
2023/06/05 09:01:37;;;;;;;10.13;5.85;;;23.90;41.60;;;;;;4991098;28;20053;-68
2023/06/05 09:04:04;;;;;;;8.95;5.57;;;23.90;41.20;;;;;;4992177;28;20069;-68
2023/06/05 09:06:32;;;;;;;10.73;6.22;;;23.90;41.30;;;;;;4995115;28;20041;-68
2023/06/05 09:09:01;;;;;;;12.68;10.00;;;24.00;41.00;;;;;;4990424;28;20058;-68
2023/06/05 09:11:32;;;;;;;13.50;8.38;;;24.10;40.80;;;;;;4991397;28;20046;-66
2023/06/05 09:14:00;;;;;;;10.52;7.82;;;24.20;40.70;;;;;;4993005;28;20077;-68
2023/06/05 09:16:39;;;;;;;16.15;12.48;;;24.30;40.70;;;;;;4991264;28;20047;-67
2023/06/05 09:19:07;;;;;;;17.25;9.88;;;24.30;40.50;;;;;;4991176;28;20113;-67
2023/06/05 09:21:34;;;;;;;10.77;7.78;;;24.50;39.70;;;;;;4988860;28;20420;-67
2023/06/05 09:24:13;;;;;;;9.15;6.75;;;24.60;39.90;;;;;;4993897;28;20049;-67
2023/06/05 09:26:48;;;;;;;13.02;7.93;;;24.80;39.30;;;;;;4992336;28;20816;-67
2023/06/05 09:29:21;;;;;;;10.05;7.43;;;24.80;39.60;;;;;;4989234;28;20125;-66
2023/06/05 09:31:49;;;;;;;8.30;5.70;;;24.90;39.50;;;;;;4990779;28;20481;-67
2023/06/05 09:34:24;;;;;;;9.02;5.63;;;25.00;38.20;;;;;;4993337;28;20109;-67
2023/06/05 09:36:51;;;;;;;8.65;5.68;;;25.10;38.30;;;;;;4990102;28;20038;-67
2023/06/05 09:39:19;;;;;;;7.72;4.57;;;25.30;37.80;;;;;;4989935;28;20068;-67
2023/06/05 09:41:48;;;;;;;7.13;4.00;;;25.30;37.40;;;;;;4987917;28;20460;-67
2023/06/05 09:44:15;;;;;;;;;;;25.40;37.10;;;;;;4992293;28;20058;-68
2023/06/05 09:46:58;;;;;;;7.57;5.20;;;25.50;37.40;;;;;;4987890;28;19928;-67
2023/06/05 09:49:29;;;;;;;7.82;4.30;;;25.60;37.40;;;;;;4983438;28;20051;-68
2023/06/05 09:51:57;;;;;;;9.10;4.78;;;25.60;36.80;;;;;;4990631;28;20057;-68
2023/06/05 09:54:27;;;;;;;6.85;4.68;;;25.70;37.20;;;;;;4989543;28;20042;-68
2023/06/05 09:56:58;;;;;;;6.22;3.60;;;25.80;37.10;;;;;;4989920;28;20116;-68
2023/06/05 09:59:28;;;;;;;6.35;3.55;;;25.90;36.70;;;;;;4992645;28;20050;-67
2023/06/05 10:01:57;;;;;;;5.00;3.10;;;26.00;36.50;;;;;;4990648;28;20502;-67
2023/06/05 10:04:26;;;;;;;6.18;3.70;;;26.00;36.30;;;;;;4993492;28;20050;-67
2023/06/05 10:06:58;;;;;;;9.27;5.53;;;26.10;35.70;;;;;;4992639;28;20053;-68
2023/06/05 10:09:30;;;;;;;16.15;11.80;;;26.20;36.60;;;;;;4987059;28;20046;-68
2023/06/05 10:11:57;;;;;;;11.80;8.85;;;26.30;35.90;;;;;;4991777;28;20062;-67
2023/06/05 10:14:24;;;;;;;11.25;7.18;;;26.30;36.20;;;;;;4994285;28;20046;-67
2023/06/05 10:16:52;;;;;;;12.00;7.55;;;26.40;36.00;;;;;;4994759;28;20054;-68
2023/06/05 10:19:21;;;;;;;9.32;6.47;;;26.40;35.80;;;;;;4988167;28;20050;-68
2023/06/05 10:21:49;;;;;;;9.40;5.85;;;26.50;35.50;;;;;;4990204;28;20060;-72
2023/06/05 10:24:21;;;;;;;8.13;4.57;;;26.50;35.30;;;;;;4990054;28;20698;-71
2023/06/05 10:27:42;;;;;;;8.18;3.85;;;26.60;35.60;;;;;;4995804;28;20049;-72
2023/06/05 10:30:36;;;;;;;5.85;3.30;;;26.70;34.80;;;;;;4995842;28;20081;-69
2023/06/05 10:33:21;;;;;;;6.65;3.00;;;26.90;34.50;;;;;;4997453;28;20046;-72
2023/06/05 10:35:54;;;;;;;5.05;3.00;;;26.90;35.00;;;;;;4992317;28;20194;-72
2023/06/05 10:38:22;;;;;;;6.88;3.25;;;26.90;35.10;;;;;;4994890;28;20069;-71
2023/06/05 10:40:54;;;;;;;5.60;2.50;;;27.00;34.50;;;;;;4996507;28;20048;-72
2023/06/05 10:43:28;;;;;;;5.88;2.92;;;27.00;34.60;;;;;;4996002;28;20049;-72
2023/06/05 10:45:56;;;;;;;6.43;3.28;;;27.10;33.80;;;;;;4994258;28;20038;-72
2023/06/05 10:49:02;;;;;;;5.65;2.65;;;27.10;34.20;;;;;;4994373;28;20065;-72
2023/06/05 10:51:39;;;;;;;6.32;2.70;;;27.20;34.00;;;;;;4987181;28;20058;-72
2023/06/05 10:54:07;;;;;;;5.65;2.30;;;27.30;34.00;;;;;;4995493;28;20371;-72
2023/06/05 10:56:56;;;;;;;5.07;2.58;;;27.40;33.90;;;;;;4983028;28;20577;-72
2023/06/05 10:59:24;;;;;;;4.47;2.47;;;27.50;34.20;;;;;;4974320;28;20113;-73
2023/06/05 11:02:25;;;;;;;6.47;2.10;;;27.50;34.10;;;;;;4993677;28;20503;-71
2023/06/05 11:05:12;;;;;;;4.93;2.03;;;27.50;33.80;;;;;;4977668;28;20465;-72
2023/06/05 11:07:42;;;;;;;3.92;2.17;;;27.60;33.10;;;;;;4989850;28;20473;-72
2023/06/05 11:10:17;;;;;;;4.93;2.08;;;27.60;33.80;;;;;;4994181;28;20129;-71
2023/06/05 11:13:01;;;;;;;3.97;2.20;;;27.70;33.10;;;;;;4996791;28;20413;-72
2023/06/05 11:15:46;;;;;;;3.75;2.38;;;27.70;33.30;;;;;;4994575;28;20594;-72
2023/06/05 11:18:33;;;;;;;5.55;2.60;;;27.70;33.10;;;;;;4993105;28;20130;-71
2023/06/05 11:21:01;;;;;;;4.30;2.40;;;27.70;32.90;;;;;;4991030;28;20039;-73
2023/06/05 11:23:30;;;;;;;3.47;2.05;;;27.80;31.90;;;;;;4992665;28;20048;-73
2023/06/05 11:25:59;;;;;;;4.22;1.92;;;27.90;31.70;;;;;;4992416;28;20046;-73
2023/06/05 11:28:43;;;;;;;4.15;1.85;;;27.90;32.10;;;;;;4994108;28;20560;-72
2023/06/05 11:31:11;;;;;;;4.75;1.88;;;27.90;32.70;;;;;;4993177;28;20070;-71
2023/06/05 11:33:38;;;;;;;4.38;2.03;;;27.90;32.40;;;;;;4988761;28;20555;-73
2023/06/05 11:36:11;;;;;;;3.85;2.13;;;27.90;32.10;;;;;;4993435;28;20056;-73
2023/06/05 11:38:40;;;;;;;4.53;2.35;;;28.10;32.00;;;;;;4995570;28;20061;-72
2023/06/05 11:41:08;;;;;;;3.85;2.20;;;28.10;32.00;;;;;;4991548;28;20046;-73
2023/06/05 11:43:43;;;;;;;5.28;1.77;;;28.10;32.00;;;;;;4989322;28;20050;-72
2023/06/05 11:46:11;;;;;;;2.92;1.83;;;28.00;31.70;;;;;;4995454;28;20474;-71
2023/06/05 11:48:45;;;;;;;5.07;2.15;;;28.00;31.90;;;;;;4995620;28;20054;-72
2023/06/05 11:51:12;;;;;;;3.63;1.95;;;28.00;32.60;;;;;;4991685;28;20054;-71
2023/06/05 11:53:47;;;;;;;4.72;1.98;;;28.00;31.50;;;;;;4996350;28;20066;-72
2023/06/05 11:56:16;;;;;;;4.07;1.80;;;28.00;31.80;;;;;;4993523;28;20050;-72
2023/06/05 11:58:44;;;;;;;4.47;2.03;;;28.10;32.50;;;;;;4993235;28;20058;-72
2023/06/05 12:01:17;;;;;;;3.50;1.90;;;28.10;32.40;;;;;;4996350;28;20054;-72
2023/06/05 12:03:45;;;;;;;5.97;2.10;;;28.10;30.90;;;;;;4999054;28;20050;-73
2023/06/05 12:06:13;;;;;;;3.10;1.80;;;28.10;30.50;;;;;;4995236;28;20097;-73
2023/06/05 12:08:42;;;;;;;4.75;2.00;;;28.10;30.60;;;;;;4971569;28;20070;-72
2023/06/05 12:11:27;;;;;;;2.88;1.80;;;28.20;31.70;;;;;;4989532;28;20073;-71
2023/06/05 12:13:55;;;;;;;3.60;1.90;;;28.10;30.40;;;;;;4990059;28;20053;-72
2023/06/05 12:16:32;;;;;;;3.47;1.65;;;28.00;30.20;;;;;;4993124;28;20042;-73
2023/06/05 12:18:59;;;;;;;4.30;2.13;;;28.10;31.00;;;;;;4995149;28;20128;-73
2023/06/05 12:21:27;;;;;;;3.58;1.77;;;28.10;30.60;;;;;;4996011;28;20054;-72
2023/06/05 12:24:03;;;;;;;5.03;1.90;;;28.10;30.40;;;;;;4996255;28;20080;-73
2023/06/05 12:26:32;;;;;;;3.92;2.25;;;28.10;30.50;;;;;;4988260;28;20038;-73
2023/06/05 12:29:06;;;;;;;3.45;1.92;;;28.10;31.20;;;;;;4985941;28;20047;-74
2023/06/05 12:31:34;;;;;;;2.55;1.80;;;28.10;30.80;;;;;;4993885;28;20062;-73
2023/06/05 12:34:02;;;;;;;2.80;1.60;;;28.20;30.70;;;;;;4996292;28;20477;-73
2023/06/05 12:36:29;;;;;;;4.53;1.98;;;28.10;30.70;;;;;;4994895;28;20473;-72
2023/06/05 12:38:56;;;;;;;3.58;1.85;;;28.10;30.70;;;;;;4982783;28;20033;-74
2023/06/05 12:41:25;;;;;;;3.42;1.80;;;28.00;31.10;;;;;;4996093;28;20109;-74
2023/06/05 12:44:02;;;;;;;;;;;28.00;31.30;;;;;;4992448;28;20096;-73
2023/06/05 12:46:29;;;;;;;3.53;1.70;;;28.00;31.20;;;;;;4991438;28;20037;-73
2023/06/05 12:48:57;;;;;;;3.35;1.92;;;28.00;29.70;;;;;;4993827;28;20046;-73
2023/06/05 12:51:25;;;;;;;3.92;2.22;;;28.00;30.10;;;;;;4994329;28;20085;-73
2023/06/05 12:53:53;;;;;;;5.53;1.83;;;27.80;29.30;;;;;;4986411;28;20060;-73
2023/06/05 12:56:24;;;;;;;3.85;2.05;;;27.80;30.30;;;;;;4984637;28;20084;-73
2023/06/05 12:58:54;;;;;;;5.05;1.95;;;27.80;32.00;;;;;;4993265;28;20054;-74
2023/06/05 13:01:21;;;;;;;4.18;2.03;;;27.80;30.80;;;;;;4993005;28;20128;-74